sensor_id;sensor_type;location;lat;lon;timestamp;temperature;humidity
13521;DHT22;6832;51.186;3.236;2024-02-28T00:00:54;30.50;37.10
13521;DHT22;6832;51.186;3.236;2024-02-28T00:03:21;30.50;37.10
13521;DHT22;6832;51.186;3.236;2024-02-28T00:05:49;30.50;37.10
13521;DHT22;6832;51.186;3.236;2024-02-28T00:08:16;30.50;37.10
13521;DHT22;6832;51.186;3.236;2024-02-28T00:10:45;30.50;37.10
13521;DHT22;6832;51.186;3.236;2024-02-28T00:13:11;30.60;37.20
13521;DHT22;6832;51.186;3.236;2024-02-28T00:15:38;30.60;37.20
13521;DHT22;6832;51.186;3.236;2024-02-28T00:18:07;30.50;37.20
13521;DHT22;6832;51.186;3.236;2024-02-28T00:20:34;30.50;37.10
13521;DHT22;6832;51.186;3.236;2024-02-28T00:23:00;30.50;37.10
13521;DHT22;6832;51.186;3.236;2024-02-28T00:25:27;30.60;37.20
13521;DHT22;6832;51.186;3.236;2024-02-28T00:27:54;30.50;37.10
13521;DHT22;6832;51.186;3.236;2024-02-28T00:30:21;30.60;37.20
13521;DHT22;6832;51.186;3.236;2024-02-28T00:32:48;30.50;37.10
13521;DHT22;6832;51.186;3.236;2024-02-28T00:35:16;30.50;37.10
13521;DHT22;6832;51.186;3.236;2024-02-28T00:37:43;30.50;37.10
13521;DHT22;6832;51.186;3.236;2024-02-28T00:40:11;30.50;37.10
13521;DHT22;6832;51.186;3.236;2024-02-28T00:42:38;30.50;37.10
13521;DHT22;6832;51.186;3.236;2024-02-28T00:45:05;30.60;37.20
13521;DHT22;6832;51.186;3.236;2024-02-28T00:47:32;30.50;37.10
13521;DHT22;6832;51.186;3.236;2024-02-28T00:49:59;30.50;37.10
13521;DHT22;6832;51.186;3.236;2024-02-28T00:52:29;30.50;37.10
13521;DHT22;6832;51.186;3.236;2024-02-28T00:54:57;30.50;37.10
13521;DHT22;6832;51.186;3.236;2024-02-28T00:57:25;30.60;37.20
13521;DHT22;6832;51.186;3.236;2024-02-28T00:59:52;30.60;37.30
13521;DHT22;6832;51.186;3.236;2024-02-28T01:02:20;30.50;37.10
13521;DHT22;6832;51.186;3.236;2024-02-28T01:04:47;30.50;37.10
13521;DHT22;6832;51.186;3.236;2024-02-28T01:07:14;30.50;37.10
13521;DHT22;6832;51.186;3.236;2024-02-28T01:09:42;30.50;37.10
13521;DHT22;6832;51.186;3.236;2024-02-28T01:12:09;30.60;37.20
13521;DHT22;6832;51.186;3.236;2024-02-28T01:14:36;30.60;37.20
13521;DHT22;6832;51.186;3.236;2024-02-28T01:17:02;30.50;37.10
13521;DHT22;6832;51.186;3.236;2024-02-28T01:19:29;30.60;37.30
13521;DHT22;6832;51.186;3.236;2024-02-28T01:21:57;30.50;37.20
13521;DHT22;6832;51.186;3.236;2024-02-28T01:24:24;30.60;37.20
13521;DHT22;6832;51.186;3.236;2024-02-28T01:26:52;30.50;37.20
13521;DHT22;6832;51.186;3.236;2024-02-28T01:29:19;30.60;37.20
13521;DHT22;6832;51.186;3.236;2024-02-28T01:31:46;30.60;37.20
13521;DHT22;6832;51.186;3.236;2024-02-28T01:34:12;30.60;37.20
13521;DHT22;6832;51.186;3.236;2024-02-28T01:36:39;30.60;37.20
13521;DHT22;6832;51.186;3.236;2024-02-28T01:39:06;30.60;37.30
13521;DHT22;6832;51.186;3.236;2024-02-28T01:41:33;30.60;37.20
13521;DHT22;6832;51.186;3.236;2024-02-28T01:44:02;30.60;37.20
13521;DHT22;6832;51.186;3.236;2024-02-28T01:46:29;30.60;37.20
13521;DHT22;6832;51.186;3.236;2024-02-28T01:48:57;30.60;37.20
13521;DHT22;6832;51.186;3.236;2024-02-28T01:51:26;30.60;37.20
13521;DHT22;6832;51.186;3.236;2024-02-28T01:53:54;30.60;37.20
13521;DHT22;6832;51.186;3.236;2024-02-28T01:56:23;30.60;37.20
13521;DHT22;6832;51.186;3.236;2024-02-28T01:58:51;30.60;37.10
13521;DHT22;6832;51.186;3.236;2024-02-28T02:01:20;30.60;37.10
13521;DHT22;6832;51.186;3.236;2024-02-28T02:03:47;30.60;37.20
13521;DHT22;6832;51.186;3.236;2024-02-28T02:06:14;30.60;37.20
13521;DHT22;6832;51.186;3.236;2024-02-28T02:08:41;30.60;37.20
13521;DHT22;6832;51.186;3.236;2024-02-28T02:11:08;30.60;37.10
13521;DHT22;6832;51.186;3.236;2024-02-28T02:13:35;30.60;37.20
13521;DHT22;6832;51.186;3.236;2024-02-28T02:16:02;30.60;37.10
13521;DHT22;6832;51.186;3.236;2024-02-28T02:18:31;30.60;37.10
13521;DHT22;6832;51.186;3.236;2024-02-28T02:21:02;30.60;37.10
13521;DHT22;6832;51.186;3.236;2024-02-28T02:23:32;30.60;37.10
13521;DHT22;6832;51.186;3.236;2024-02-28T02:26:01;30.60;37.10
13521;DHT22;6832;51.186;3.236;2024-02-28T02:28:28;30.60;37.10
13521;DHT22;6832;51.186;3.236;2024-02-28T02:30:54;30.60;37.10
13521;DHT22;6832;51.186;3.236;2024-02-28T02:33:21;30.60;37.10
13521;DHT22;6832;51.186;3.236;2024-02-28T02:35:48;30.60;37.10
13521;DHT22;6832;51.186;3.236;2024-02-28T02:38:15;30.60;37.10
13521;DHT22;6832;51.186;3.236;2024-02-28T02:40:43;30.60;37.10
13521;DHT22;6832;51.186;3.236;2024-02-28T02:43:11;30.60;37.10
13521;DHT22;6832;51.186;3.236;2024-02-28T02:45:38;30.60;37.10
13521;DHT22;6832;51.186;3.236;2024-02-28T02:48:06;30.60;37.10
13521;DHT22;6832;51.186;3.236;2024-02-28T02:50:32;30.60;37.10
13521;DHT22;6832;51.186;3.236;2024-02-28T02:52:59;30.60;37.10
13521;DHT22;6832;51.186;3.236;2024-02-28T02:55:26;30.60;37.10
13521;DHT22;6832;51.186;3.236;2024-02-28T02:57:54;30.60;37.10
13521;DHT22;6832;51.186;3.236;2024-02-28T03:00:21;30.60;37.10
13521;DHT22;6832;51.186;3.236;2024-02-28T03:02:48;30.60;37.10
13521;DHT22;6832;51.186;3.236;2024-02-28T03:05:15;30.60;37.10
13521;DHT22;6832;51.186;3.236;2024-02-28T03:07:42;30.60;37.10
13521;DHT22;6832;51.186;3.236;2024-02-28T03:10:09;30.60;37.10
13521;DHT22;6832;51.186;3.236;2024-02-28T03:12:36;30.60;37.10
13521;DHT22;6832;51.186;3.236;2024-02-28T03:15:05;30.60;37.10
13521;DHT22;6832;51.186;3.236;2024-02-28T03:17:33;30.60;37.10
13521;DHT22;6832;51.186;3.236;2024-02-28T03:20:00;30.60;37.10
13521;DHT22;6832;51.186;3.236;2024-02-28T03:22:26;30.60;37.10
13521;DHT22;6832;51.186;3.236;2024-02-28T03:24:53;30.60;37.10
13521;DHT22;6832;51.186;3.236;2024-02-28T03:27:20;30.60;37.10
13521;DHT22;6832;51.186;3.236;2024-02-28T03:29:47;30.60;37.10
13521;DHT22;6832;51.186;3.236;2024-02-28T03:32:15;30.60;37.10
13521;DHT22;6832;51.186;3.236;2024-02-28T03:34:42;30.60;37.10
13521;DHT22;6832;51.186;3.236;2024-02-28T03:37:09;30.60;37.10
13521;DHT22;6832;51.186;3.236;2024-02-28T03:39:36;30.60;37.10
13521;DHT22;6832;51.186;3.236;2024-02-28T03:42:03;30.60;37.10
13521;DHT22;6832;51.186;3.236;2024-02-28T03:44:30;30.60;37.10
13521;DHT22;6832;51.186;3.236;2024-02-28T03:46:56;30.60;37.10
13521;DHT22;6832;51.186;3.236;2024-02-28T03:49:25;30.60;37.10
13521;DHT22;6832;51.186;3.236;2024-02-28T03:51:51;30.60;37.00
13521;DHT22;6832;51.186;3.236;2024-02-28T03:54:18;30.60;37.10
13521;DHT22;6832;51.186;3.236;2024-02-28T03:56:45;30.60;37.00
13521;DHT22;6832;51.186;3.236;2024-02-28T03:59:12;30.60;37.10
13521;DHT22;6832;51.186;3.236;2024-02-28T04:01:39;30.60;37.00
13521;DHT22;6832;51.186;3.236;2024-02-28T04:04:06;30.60;37.10
13521;DHT22;6832;51.186;3.236;2024-02-28T04:06:34;30.60;37.10
13521;DHT22;6832;51.186;3.236;2024-02-28T04:09:00;30.60;37.00
13521;DHT22;6832;51.186;3.236;2024-02-28T04:11:28;30.70;37.10
13521;DHT22;6832;51.186;3.236;2024-02-28T04:13:55;30.60;37.00
13521;DHT22;6832;51.186;3.236;2024-02-28T04:16:22;30.60;37.00
13521;DHT22;6832;51.186;3.236;2024-02-28T04:18:49;30.60;37.10
13521;DHT22;6832;51.186;3.236;2024-02-28T04:21:15;30.60;37.00
13521;DHT22;6832;51.186;3.236;2024-02-28T04:23:43;30.60;37.00
13521;DHT22;6832;51.186;3.236;2024-02-28T04:26:10;30.60;37.00
13521;DHT22;6832;51.186;3.236;2024-02-28T04:28:36;30.70;37.10
13521;DHT22;6832;51.186;3.236;2024-02-28T04:31:03;30.60;37.00
13521;DHT22;6832;51.186;3.236;2024-02-28T04:33:30;30.60;37.00
13521;DHT22;6832;51.186;3.236;2024-02-28T04:35:57;30.60;37.00
13521;DHT22;6832;51.186;3.236;2024-02-28T04:38:24;30.60;37.10
13521;DHT22;6832;51.186;3.236;2024-02-28T04:40:52;30.60;37.00
13521;DHT22;6832;51.186;3.236;2024-02-28T04:43:19;30.60;37.00
13521;DHT22;6832;51.186;3.236;2024-02-28T04:45:46;30.60;37.00
13521;DHT22;6832;51.186;3.236;2024-02-28T04:48:13;30.60;37.00
13521;DHT22;6832;51.186;3.236;2024-02-28T04:50:39;30.60;37.00
13521;DHT22;6832;51.186;3.236;2024-02-28T04:53:06;30.60;37.00
13521;DHT22;6832;51.186;3.236;2024-02-28T04:55:34;30.60;37.00
13521;DHT22;6832;51.186;3.236;2024-02-28T04:58:02;30.60;37.00
13521;DHT22;6832;51.186;3.236;2024-02-28T05:00:29;30.60;37.00
13521;DHT22;6832;51.186;3.236;2024-02-28T05:02:56;30.60;37.00
13521;DHT22;6832;51.186;3.236;2024-02-28T05:05:23;30.60;37.00
13521;DHT22;6832;51.186;3.236;2024-02-28T05:07:50;30.60;37.00
13521;DHT22;6832;51.186;3.236;2024-02-28T05:10:17;30.60;37.00
13521;DHT22;6832;51.186;3.236;2024-02-28T05:12:43;30.60;37.00
13521;DHT22;6832;51.186;3.236;2024-02-28T05:15:11;30.60;37.00
13521;DHT22;6832;51.186;3.236;2024-02-28T05:17:38;30.60;37.00
13521;DHT22;6832;51.186;3.236;2024-02-28T05:20:07;30.60;37.30
13521;DHT22;6832;51.186;3.236;2024-02-28T05:22:34;30.60;37.60
13521;DHT22;6832;51.186;3.236;2024-02-28T05:25:01;30.60;37.00
13521;DHT22;6832;51.186;3.236;2024-02-28T05:27:29;30.60;36.90
13521;DHT22;6832;51.186;3.236;2024-02-28T05:29:56;30.50;36.90
13521;DHT22;6832;51.186;3.236;2024-02-28T05:32:24;30.60;37.00
13521;DHT22;6832;51.186;3.236;2024-02-28T05:34:51;30.50;36.90
13521;DHT22;6832;51.186;3.236;2024-02-28T05:37:18;30.50;37.50
13521;DHT22;6832;51.186;3.236;2024-02-28T05:39:45;30.60;36.90
13521;DHT22;6832;51.186;3.236;2024-02-28T05:42:11;30.50;36.90
13521;DHT22;6832;51.186;3.236;2024-02-28T05:44:39;30.50;36.90
13521;DHT22;6832;51.186;3.236;2024-02-28T05:47:06;30.50;36.90
13521;DHT22;6832;51.186;3.236;2024-02-28T05:49:34;30.60;37.00
13521;DHT22;6832;51.186;3.236;2024-02-28T05:52:01;30.60;37.00
13521;DHT22;6832;51.186;3.236;2024-02-28T05:54:28;30.50;36.90
13521;DHT22;6832;51.186;3.236;2024-02-28T05:56:55;30.50;36.90
13521;DHT22;6832;51.186;3.236;2024-02-28T05:59:22;30.60;37.00
13521;DHT22;6832;51.186;3.236;2024-02-28T06:01:49;30.60;37.00
13521;DHT22;6832;51.186;3.236;2024-02-28T06:04:16;30.60;37.00
13521;DHT22;6832;51.186;3.236;2024-02-28T06:06:44;30.60;37.00
13521;DHT22;6832;51.186;3.236;2024-02-28T06:09:11;30.60;37.00
13521;DHT22;6832;51.186;3.236;2024-02-28T06:11:38;30.50;36.90
13521;DHT22;6832;51.186;3.236;2024-02-28T06:14:05;30.60;36.90
13521;DHT22;6832;51.186;3.236;2024-02-28T06:16:31;30.60;37.00
13521;DHT22;6832;51.186;3.236;2024-02-28T06:18:58;30.60;36.90
13521;DHT22;6832;51.186;3.236;2024-02-28T06:21:25;30.60;37.00
13521;DHT22;6832;51.186;3.236;2024-02-28T06:23:53;30.60;37.00
13521;DHT22;6832;51.186;3.236;2024-02-28T06:26:20;30.60;36.90
13521;DHT22;6832;51.186;3.236;2024-02-28T06:28:47;30.60;37.00
13521;DHT22;6832;51.186;3.236;2024-02-28T06:31:16;30.60;37.00
13521;DHT22;6832;51.186;3.236;2024-02-28T06:33:43;30.60;37.00
13521;DHT22;6832;51.186;3.236;2024-02-28T06:36:10;30.60;36.90
13521;DHT22;6832;51.186;3.236;2024-02-28T06:38:37;30.60;37.00
13521;DHT22;6832;51.186;3.236;2024-02-28T06:41:05;30.70;37.00
13521;DHT22;6832;51.186;3.236;2024-02-28T06:43:33;30.70;37.00
13521;DHT22;6832;51.186;3.236;2024-02-28T06:46:01;30.70;37.00
13521;DHT22;6832;51.186;3.236;2024-02-28T06:48:28;30.70;37.00
13521;DHT22;6832;51.186;3.236;2024-02-28T06:50:55;30.70;37.00
13521;DHT22;6832;51.186;3.236;2024-02-28T06:53:23;30.70;37.00
13521;DHT22;6832;51.186;3.236;2024-02-28T06:55:50;30.70;37.00
13521;DHT22;6832;51.186;3.236;2024-02-28T06:58:18;30.70;37.00
13521;DHT22;6832;51.186;3.236;2024-02-28T07:00:45;30.70;37.00
13521;DHT22;6832;51.186;3.236;2024-02-28T07:03:12;30.70;37.00
13521;DHT22;6832;51.186;3.236;2024-02-28T07:05:39;30.70;37.00
13521;DHT22;6832;51.186;3.236;2024-02-28T07:08:06;30.70;37.00
13521;DHT22;6832;51.186;3.236;2024-02-28T07:10:36;30.70;37.00
13521;DHT22;6832;51.186;3.236;2024-02-28T07:13:03;30.70;37.00
13521;DHT22;6832;51.186;3.236;2024-02-28T07:15:31;30.70;37.00
13521;DHT22;6832;51.186;3.236;2024-02-28T07:17:58;30.70;37.00
13521;DHT22;6832;51.186;3.236;2024-02-28T07:20:25;30.80;37.10
13521;DHT22;6832;51.186;3.236;2024-02-28T07:22:52;30.80;37.10
13521;DHT22;6832;51.186;3.236;2024-02-28T07:25:19;30.80;37.10
13521;DHT22;6832;51.186;3.236;2024-02-28T07:27:45;30.80;37.10
13521;DHT22;6832;51.186;3.236;2024-02-28T07:30:13;30.80;37.10
13521;DHT22;6832;51.186;3.236;2024-02-28T07:32:41;30.80;37.10
13521;DHT22;6832;51.186;3.236;2024-02-28T07:35:08;30.10;36.70
13521;DHT22;6832;51.186;3.236;2024-02-28T07:37:35;30.90;37.20
13521;DHT22;6832;51.186;3.236;2024-02-28T07:40:04;30.90;37.10
13521;DHT22;6832;51.186;3.236;2024-02-28T07:42:31;30.90;37.20
13521;DHT22;6832;51.186;3.236;2024-02-28T07:44:58;30.90;37.10
13521;DHT22;6832;51.186;3.236;2024-02-28T07:47:24;30.90;37.20
13521;DHT22;6832;51.186;3.236;2024-02-28T07:49:53;30.90;37.10
13521;DHT22;6832;51.186;3.236;2024-02-28T07:52:20;30.90;37.20
13521;DHT22;6832;51.186;3.236;2024-02-28T07:54:47;30.90;37.10
13521;DHT22;6832;51.186;3.236;2024-02-28T07:57:14;30.90;37.10
13521;DHT22;6832;51.186;3.236;2024-02-28T07:59:41;31.00;37.20
13521;DHT22;6832;51.186;3.236;2024-02-28T08:02:09;31.00;37.20
13521;DHT22;6832;51.186;3.236;2024-02-28T08:04:37;31.00;37.20
13521;DHT22;6832;51.186;3.236;2024-02-28T08:07:05;31.00;37.20
13521;DHT22;6832;51.186;3.236;2024-02-28T08:09:32;31.00;37.10
13521;DHT22;6832;51.186;3.236;2024-02-28T08:11:59;31.00;37.10
13521;DHT22;6832;51.186;3.236;2024-02-28T08:14:27;31.00;37.10
13521;DHT22;6832;51.186;3.236;2024-02-28T08:16:54;31.00;37.10
13521;DHT22;6832;51.186;3.236;2024-02-28T08:19:21;31.10;37.10
13521;DHT22;6832;51.186;3.236;2024-02-28T08:21:48;31.10;37.30
13521;DHT22;6832;51.186;3.236;2024-02-28T08:24:16;31.10;37.10
13521;DHT22;6832;51.186;3.236;2024-02-28T08:26:43;31.10;37.10
13521;DHT22;6832;51.186;3.236;2024-02-28T08:29:10;31.10;37.10
13521;DHT22;6832;51.186;3.236;2024-02-28T08:31:41;31.10;37.00
13521;DHT22;6832;51.186;3.236;2024-02-28T08:34:08;31.10;37.00
13521;DHT22;6832;51.186;3.236;2024-02-28T08:36:35;31.10;37.00
13521;DHT22;6832;51.186;3.236;2024-02-28T08:39:02;31.10;37.00
13521;DHT22;6832;51.186;3.236;2024-02-28T08:41:34;31.10;37.00
13521;DHT22;6832;51.186;3.236;2024-02-28T08:44:00;31.10;36.90
13521;DHT22;6832;51.186;3.236;2024-02-28T08:46:27;31.10;37.00
13521;DHT22;6832;51.186;3.236;2024-02-28T08:48:54;31.20;37.00
13521;DHT22;6832;51.186;3.236;2024-02-28T08:51:21;31.20;37.00
13521;DHT22;6832;51.186;3.236;2024-02-28T08:53:48;31.10;36.90
13521;DHT22;6832;51.186;3.236;2024-02-28T08:56:15;31.10;36.90
13521;DHT22;6832;51.186;3.236;2024-02-28T08:58:43;31.10;36.90
13521;DHT22;6832;51.186;3.236;2024-02-28T09:01:13;31.10;36.90
13521;DHT22;6832;51.186;3.236;2024-02-28T09:03:41;31.10;36.80
13521;DHT22;6832;51.186;3.236;2024-02-28T09:06:08;31.10;36.90
13521;DHT22;6832;51.186;3.236;2024-02-28T09:08:35;31.10;36.90
13521;DHT22;6832;51.186;3.236;2024-02-28T09:11:02;31.10;36.90
13521;DHT22;6832;51.186;3.236;2024-02-28T09:13:30;31.10;36.80
13521;DHT22;6832;51.186;3.236;2024-02-28T09:15:58;31.10;36.80
13521;DHT22;6832;51.186;3.236;2024-02-28T09:18:25;31.10;36.80
13521;DHT22;6832;51.186;3.236;2024-02-28T09:20:52;31.10;36.80
13521;DHT22;6832;51.186;3.236;2024-02-28T09:23:19;31.10;36.80
13521;DHT22;6832;51.186;3.236;2024-02-28T09:25:46;31.00;36.80
13521;DHT22;6832;51.186;3.236;2024-02-28T09:28:13;31.00;36.80
13521;DHT22;6832;51.186;3.236;2024-02-28T09:30:41;31.00;36.70
13521;DHT22;6832;51.186;3.236;2024-02-28T09:33:10;31.00;36.70
13521;DHT22;6832;51.186;3.236;2024-02-28T09:35:37;31.00;36.70
13521;DHT22;6832;51.186;3.236;2024-02-28T09:38:04;31.00;36.70
13521;DHT22;6832;51.186;3.236;2024-02-28T09:40:31;31.00;36.70
13521;DHT22;6832;51.186;3.236;2024-02-28T09:43:02;31.00;36.70
13521;DHT22;6832;51.186;3.236;2024-02-28T09:45:30;31.00;36.70
13521;DHT22;6832;51.186;3.236;2024-02-28T09:47:58;31.00;36.70
13521;DHT22;6832;51.186;3.236;2024-02-28T09:50:27;31.00;36.70
13521;DHT22;6832;51.186;3.236;2024-02-28T09:52:54;30.90;36.60
13521;DHT22;6832;51.186;3.236;2024-02-28T09:55:21;30.90;36.70
13521;DHT22;6832;51.186;3.236;2024-02-28T09:57:49;31.00;36.70
13521;DHT22;6832;51.186;3.236;2024-02-28T10:00:19;30.90;36.60
13521;DHT22;6832;51.186;3.236;2024-02-28T10:02:47;30.90;36.70
13521;DHT22;6832;51.186;3.236;2024-02-28T10:05:15;30.90;36.70
13521;DHT22;6832;51.186;3.236;2024-02-28T10:07:45;30.90;36.70
13521;DHT22;6832;51.186;3.236;2024-02-28T10:10:12;30.90;36.70
13521;DHT22;6832;51.186;3.236;2024-02-28T10:12:42;30.90;36.70
13521;DHT22;6832;51.186;3.236;2024-02-28T10:15:10;30.80;36.60
13521;DHT22;6832;51.186;3.236;2024-02-28T10:17:37;30.80;36.60
13521;DHT22;6832;51.186;3.236;2024-02-28T10:20:05;30.80;36.60
13521;DHT22;6832;51.186;3.236;2024-02-28T10:22:35;30.80;36.70
13521;DHT22;6832;51.186;3.236;2024-02-28T10:25:04;30.80;36.60
13521;DHT22;6832;51.186;3.236;2024-02-28T10:27:32;30.80;36.70
13521;DHT22;6832;51.186;3.236;2024-02-28T10:30:00;30.70;36.60
13521;DHT22;6832;51.186;3.236;2024-02-28T10:32:27;30.70;36.60
13521;DHT22;6832;51.186;3.236;2024-02-28T10:34:54;30.70;36.60
13521;DHT22;6832;51.186;3.236;2024-02-28T10:37:21;30.70;36.60
13521;DHT22;6832;51.186;3.236;2024-02-28T10:39:49;30.70;36.70
13521;DHT22;6832;51.186;3.236;2024-02-28T10:42:19;30.70;36.60
13521;DHT22;6832;51.186;3.236;2024-02-28T10:44:50;30.70;36.60
13521;DHT22;6832;51.186;3.236;2024-02-28T10:47:18;30.70;36.60
13521;DHT22;6832;51.186;3.236;2024-02-28T10:49:45;30.70;37.30
13521;DHT22;6832;51.186;3.236;2024-02-28T10:52:12;30.70;36.70
13521;DHT22;6832;51.186;3.236;2024-02-28T10:54:42;30.70;36.70
13521;DHT22;6832;51.186;3.236;2024-02-28T10:57:12;30.70;36.70
13521;DHT22;6832;51.186;3.236;2024-02-28T10:59:43;30.60;36.60
13521;DHT22;6832;51.186;3.236;2024-02-28T11:02:11;30.60;36.60
13521;DHT22;6832;51.186;3.236;2024-02-28T11:04:38;30.60;36.60
13521;DHT22;6832;51.186;3.236;2024-02-28T11:07:06;30.60;36.70
13521;DHT22;6832;51.186;3.236;2024-02-28T11:09:34;30.60;36.70
13521;DHT22;6832;51.186;3.236;2024-02-28T11:12:04;30.50;36.60
13521;DHT22;6832;51.186;3.236;2024-02-28T11:14:31;30.50;36.60
13521;DHT22;6832;51.186;3.236;2024-02-28T11:17:03;30.50;36.60
13521;DHT22;6832;51.186;3.236;2024-02-28T11:19:30;30.50;36.60
13521;DHT22;6832;51.186;3.236;2024-02-28T11:21:59;30.50;36.60
13521;DHT22;6832;51.186;3.236;2024-02-28T11:24:30;30.50;36.60
13521;DHT22;6832;51.186;3.236;2024-02-28T11:26:57;30.50;36.60
13521;DHT22;6832;51.186;3.236;2024-02-28T11:29:24;30.50;36.60
13521;DHT22;6832;51.186;3.236;2024-02-28T11:31:52;30.50;36.60
13521;DHT22;6832;51.186;3.236;2024-02-28T11:34:21;30.40;36.50
13521;DHT22;6832;51.186;3.236;2024-02-28T11:36:48;30.50;36.60
13521;DHT22;6832;51.186;3.236;2024-02-28T11:39:16;30.40;36.60
13521;DHT22;6832;51.186;3.236;2024-02-28T11:41:43;30.40;36.60
13521;DHT22;6832;51.186;3.236;2024-02-28T11:44:12;30.40;36.60
13521;DHT22;6832;51.186;3.236;2024-02-28T11:46:43;30.40;36.60
13521;DHT22;6832;51.186;3.236;2024-02-28T11:49:11;30.40;36.70
13521;DHT22;6832;51.186;3.236;2024-02-28T11:51:41;30.40;36.60
13521;DHT22;6832;51.186;3.236;2024-02-28T11:54:09;30.40;36.70
13521;DHT22;6832;51.186;3.236;2024-02-28T11:56:36;30.40;36.70
13521;DHT22;6832;51.186;3.236;2024-02-28T11:59:04;30.30;36.60
13521;DHT22;6832;51.186;3.236;2024-02-28T12:01:35;30.40;36.70
13521;DHT22;6832;51.186;3.236;2024-02-28T12:04:03;30.40;36.70
13521;DHT22;6832;51.186;3.236;2024-02-28T12:06:30;30.40;36.70
13521;DHT22;6832;51.186;3.236;2024-02-28T12:08:59;30.40;36.80
13521;DHT22;6832;51.186;3.236;2024-02-28T12:11:26;30.30;36.70
13521;DHT22;6832;51.186;3.236;2024-02-28T12:13:54;30.40;36.80
13521;DHT22;6832;51.186;3.236;2024-02-28T12:16:23;30.40;36.80
13521;DHT22;6832;51.186;3.236;2024-02-28T12:18:51;30.40;36.80
13521;DHT22;6832;51.186;3.236;2024-02-28T12:21:18;30.40;36.80
13521;DHT22;6832;51.186;3.236;2024-02-28T12:23:46;30.40;36.80
13521;DHT22;6832;51.186;3.236;2024-02-28T12:26:16;30.40;36.80
13521;DHT22;6832;51.186;3.236;2024-02-28T12:28:43;30.30;36.70
13521;DHT22;6832;51.186;3.236;2024-02-28T12:31:10;30.40;36.80
13521;DHT22;6832;51.186;3.236;2024-02-28T12:33:39;30.40;36.80
13521;DHT22;6832;51.186;3.236;2024-02-28T12:36:06;30.40;36.80
13521;DHT22;6832;51.186;3.236;2024-02-28T12:38:33;30.40;36.80
13521;DHT22;6832;51.186;3.236;2024-02-28T12:41:00;30.40;36.70
13521;DHT22;6832;51.186;3.236;2024-02-28T12:43:30;30.40;36.80
13521;DHT22;6832;51.186;3.236;2024-02-28T12:45:57;30.40;36.70
13521;DHT22;6832;51.186;3.236;2024-02-28T12:48:24;30.40;36.80
13521;DHT22;6832;51.186;3.236;2024-02-28T12:50:51;30.30;36.70
13521;DHT22;6832;51.186;3.236;2024-02-28T12:53:18;30.30;36.70
13521;DHT22;6832;51.186;3.236;2024-02-28T12:55:45;30.30;36.70
13521;DHT22;6832;51.186;3.236;2024-02-28T12:58:12;30.30;36.70
13521;DHT22;6832;51.186;3.236;2024-02-28T13:00:40;30.30;36.70
13521;DHT22;6832;51.186;3.236;2024-02-28T13:03:07;30.30;36.70
13521;DHT22;6832;51.186;3.236;2024-02-28T13:05:33;30.30;36.70
13521;DHT22;6832;51.186;3.236;2024-02-28T13:08:00;30.30;36.70
13521;DHT22;6832;51.186;3.236;2024-02-28T13:10:29;30.30;36.80
13521;DHT22;6832;51.186;3.236;2024-02-28T13:12:56;30.30;36.70
13521;DHT22;6832;51.186;3.236;2024-02-28T13:15:22;30.30;36.70
13521;DHT22;6832;51.186;3.236;2024-02-28T13:17:51;30.30;37.40
13521;DHT22;6832;51.186;3.236;2024-02-28T13:20:18;30.30;36.70
13521;DHT22;6832;51.186;3.236;2024-02-28T13:22:44;30.30;36.70
13521;DHT22;6832;51.186;3.236;2024-02-28T13:25:11;30.30;36.70
13521;DHT22;6832;51.186;3.236;2024-02-28T13:27:39;30.30;36.70
13521;DHT22;6832;51.186;3.236;2024-02-28T13:30:09;30.30;36.70
13521;DHT22;6832;51.186;3.236;2024-02-28T13:32:36;30.30;36.70
13521;DHT22;6832;51.186;3.236;2024-02-28T13:35:04;30.30;36.80
13521;DHT22;6832;51.186;3.236;2024-02-28T13:37:31;30.30;36.80
13521;DHT22;6832;51.186;3.236;2024-02-28T13:39:58;30.30;36.70
13521;DHT22;6832;51.186;3.236;2024-02-28T13:42:25;30.20;36.70
13521;DHT22;6832;51.186;3.236;2024-02-28T13:44:52;30.20;36.70
13521;DHT22;6832;51.186;3.236;2024-02-28T13:47:19;30.20;36.70
13521;DHT22;6832;51.186;3.236;2024-02-28T13:49:46;30.20;36.70
13521;DHT22;6832;51.186;3.236;2024-02-28T13:52:14;30.20;36.70
13521;DHT22;6832;51.186;3.236;2024-02-28T13:54:41;30.20;37.30
13521;DHT22;6832;51.186;3.236;2024-02-28T13:57:08;30.20;36.70
13521;DHT22;6832;51.186;3.236;2024-02-28T13:59:35;30.20;36.70
13521;DHT22;6832;51.186;3.236;2024-02-28T14:02:02;30.20;36.70
13521;DHT22;6832;51.186;3.236;2024-02-28T14:04:28;30.20;36.70
13521;DHT22;6832;51.186;3.236;2024-02-28T14:06:55;30.20;36.80
13521;DHT22;6832;51.186;3.236;2024-02-28T14:09:24;30.20;36.80
13521;DHT22;6832;51.186;3.236;2024-02-28T14:11:50;30.10;36.70
13521;DHT22;6832;51.186;3.236;2024-02-28T14:14:17;30.10;36.70
13521;DHT22;6832;51.186;3.236;2024-02-28T14:16:44;30.10;36.70
13521;DHT22;6832;51.186;3.236;2024-02-28T14:19:11;30.10;36.80
13521;DHT22;6832;51.186;3.236;2024-02-28T14:21:38;30.10;36.70
13521;DHT22;6832;51.186;3.236;2024-02-28T14:24:06;30.10;36.90
13521;DHT22;6832;51.186;3.236;2024-02-28T14:26:34;30.10;36.80
13521;DHT22;6832;51.186;3.236;2024-02-28T14:29:01;30.10;36.80
13521;DHT22;6832;51.186;3.236;2024-02-28T14:31:28;30.10;37.40
13521;DHT22;6832;51.186;3.236;2024-02-28T14:33:55;30.10;36.80
13521;DHT22;6832;51.186;3.236;2024-02-28T14:36:23;30.10;36.80
13521;DHT22;6832;51.186;3.236;2024-02-28T14:38:51;30.10;36.80
13521;DHT22;6832;51.186;3.236;2024-02-28T14:41:17;30.10;36.80
13521;DHT22;6832;51.186;3.236;2024-02-28T14:43:46;30.10;36.80
13521;DHT22;6832;51.186;3.236;2024-02-28T14:46:13;30.10;36.80
13521;DHT22;6832;51.186;3.236;2024-02-28T14:48:42;30.10;36.80
13521;DHT22;6832;51.186;3.236;2024-02-28T14:51:10;30.10;36.80
13521;DHT22;6832;51.186;3.236;2024-02-28T14:53:37;30.10;36.80
13521;DHT22;6832;51.186;3.236;2024-02-28T14:56:05;30.10;36.90
13521;DHT22;6832;51.186;3.236;2024-02-28T14:58:32;30.10;36.80
13521;DHT22;6832;51.186;3.236;2024-02-28T15:01:00;30.10;36.80
13521;DHT22;6832;51.186;3.236;2024-02-28T15:03:28;30.00;36.70
13521;DHT22;6832;51.186;3.236;2024-02-28T15:05:55;30.10;36.90
13521;DHT22;6832;51.186;3.236;2024-02-28T15:08:22;30.10;36.90
13521;DHT22;6832;51.186;3.236;2024-02-28T15:10:49;30.10;36.80
13521;DHT22;6832;51.186;3.236;2024-02-28T15:13:18;30.10;36.90
13521;DHT22;6832;51.186;3.236;2024-02-28T15:15:45;30.00;36.70
13521;DHT22;6832;51.186;3.236;2024-02-28T15:18:14;30.00;36.70
13521;DHT22;6832;51.186;3.236;2024-02-28T15:20:41;30.00;36.70
13521;DHT22;6832;51.186;3.236;2024-02-28T15:23:08;30.00;36.70
13521;DHT22;6832;51.186;3.236;2024-02-28T15:25:35;30.00;36.70
13521;DHT22;6832;51.186;3.236;2024-02-28T15:28:02;30.00;36.80
13521;DHT22;6832;51.186;3.236;2024-02-28T15:30:30;30.00;36.70
13521;DHT22;6832;51.186;3.236;2024-02-28T15:32:57;30.00;36.80
13521;DHT22;6832;51.186;3.236;2024-02-28T15:35:25;29.90;36.70
13521;DHT22;6832;51.186;3.236;2024-02-28T15:37:52;29.90;36.70
13521;DHT22;6832;51.186;3.236;2024-02-28T15:40:19;29.90;36.70
13521;DHT22;6832;51.186;3.236;2024-02-28T15:42:48;29.90;36.70
13521;DHT22;6832;51.186;3.236;2024-02-28T15:45:15;29.90;36.80